Time;durP1;ratioP1;P1;durP2;ratioP2;P2;SDS_P1;SDS_P2;PMS_P1;PMS_P2;Temp;Humidity;BMP_temperature;BMP_pressure;BME280_temperature;BME280_humidity;BME280_pressure;Samples;Min_cycle;Max_cycle;Signal;HPM_P1;HPM_P2
2021/09/17 00:01:56;;;;;;;;;;;;;;;8.37;65.05;99978.91;5135778;27;20376;-84
2021/09/17 00:04:23;;;;;;;;;;;;;;;8.32;64.24;99975.44;5135230;27;20064;-84
2021/09/17 00:06:50;;;;;;;;;;;;;;;8.36;64.63;99981.94;5135591;27;19984;-84
2021/09/17 00:09:17;;;;;;;;;;;;;;;8.42;64.85;99978.94;5135544;27;19968;-84
2021/09/17 00:11:43;;;;;;;;;;;;;;;8.37;64.77;99975.38;5135482;27;19923;-84
2021/09/17 00:14:11;;;;;;;;;;;;;;;8.42;65.18;99975.41;5135345;27;19946;-84
2021/09/17 00:16:37;;;;;;;;;;;;;;;8.40;65.33;99978.38;5135311;27;19967;-84
2021/09/17 00:19:03;;;;;;;;;;;;;;;8.52;65.40;99977.25;5135333;27;20022;-84
2021/09/17 00:21:29;;;;;;;;;;;;;;;8.55;65.30;99974.75;5135274;27;19923;-84
2021/09/17 00:23:55;;;;;;;;;;;;;;;8.36;64.80;99976.47;5134874;27;19926;-84
2021/09/17 00:26:20;;;;;;;;;;;;;;;8.37;64.97;99984.38;5116706;27;20307;-84
2021/09/17 00:28:50;;;;;;;;;;;;;;;8.29;64.38;99978.72;5135081;27;19919;-83
2021/09/17 00:31:16;;;;;;;;;;;;;;;8.23;65.28;99973.28;5135151;27;20410;-83
2021/09/17 00:33:43;;;;;;;;;;;;;;;8.23;65.27;99977.91;5134724;27;20338;-85
2021/09/17 00:36:11;;;;;;;;;;;;;;;8.17;65.62;99974.41;5134928;27;19919;-84
2021/09/17 00:38:39;;;;;;;;;;;;;;;8.19;65.89;99974.94;5116719;27;20322;-84
2021/09/17 00:41:05;;;;;;;;;;;;;;;8.16;66.16;99975.50;5134947;27;20026;-84
2021/09/17 00:43:31;;;;;;;;;;;;;;;8.12;66.53;99970.91;5134555;27;20380;-83
2021/09/17 00:45:57;;;;;;;;;;;;;;;8.12;67.12;99970.91;5134719;27;19931;-84
2021/09/17 00:48:24;;;;;;;;;;;;;;;8.08;67.30;99981.56;5134800;27;19962;-84
2021/09/17 00:50:49;;;;;;;;;;;;;;;8.07;67.47;99977.19;5134733;27;19931;-83
2021/09/17 00:53:16;;;;;;;;;;;;;;;8.04;67.64;99972.28;5134695;27;20312;-84
2021/09/17 00:55:41;;;;;;;;;;;;;;;8.03;67.69;99981.56;5116028;27;19930;-84
2021/09/17 00:58:07;;;;;;;;;;;;;;;8.04;67.37;99969.56;5134500;27;20451;-84
2021/09/17 01:00:33;;;;;;;;;;;;;;;8.02;67.51;99970.97;5134538;27;20022;-84
2021/09/17 01:03:00;;;;;;;;;;;;;;;7.95;67.24;99974.00;5134351;27;20561;-84
2021/09/17 01:05:32;;;;;;;;;;;;;;;7.91;67.77;99976.47;5133921;27;19970;-84
2021/09/17 01:07:59;;;;;;;;;;;;;;;7.90;68.07;99976.72;5134138;27;19923;-84
2021/09/17 01:10:25;;;;;;;;;;;;;;;7.90;68.24;99971.28;5134297;27;19938;-84
2021/09/17 01:12:54;;;;;;;;;;;;;;;7.92;67.56;99977.28;5134268;27;19967;-84
2021/09/17 01:15:20;;;;;;;;;;;;;;;7.86;67.43;99971.03;5115581;27;19923;-84
2021/09/17 01:17:48;;;;;;;;;;;;;;;7.90;67.08;99976.72;5134118;27;19924;-84
2021/09/17 01:20:15;;;;;;;;;;;;;;;7.93;67.09;99971.53;5134146;27;20356;-84
2021/09/17 01:22:42;;;;;;;;;;;;;;;7.89;66.91;99975.91;5134100;27;19931;-84
2021/09/17 01:25:10;;;;;;;;;;;;;;;7.87;66.61;99969.09;5133807;27;20332;-84
2021/09/17 01:27:40;;;;;;;;;;;;;;;7.82;66.69;99972.69;5133890;27;20410;-84
2021/09/17 01:30:06;;;;;;;;;;;;;;;7.74;66.44;99963.16;5133947;27;19937;-84
2021/09/17 01:32:32;;;;;;;;;;;;;;;7.71;66.83;99961.00;5133902;27;19946;-84
2021/09/17 01:34:58;;;;;;;;;;;;;;;7.79;66.61;99964.25;5133834;27;20424;-84
2021/09/17 01:37:30;;;;;;;;;;;;;;;7.77;66.36;99962.59;5114944;27;20410;-84
2021/09/17 01:39:56;;;;;;;;;;;;;;;7.83;66.75;99960.69;5133794;27;19980;-84
2021/09/17 01:42:22;;;;;;;;;;;;;;;7.82;66.09;99963.72;5133769;27;19959;-84
2021/09/17 01:44:48;;;;;;;;;;;;;;;7.77;66.64;99962.59;5133625;27;19974;-84
2021/09/17 01:47:14;;;;;;;;;;;;;;;7.73;66.54;99958.81;5132897;27;20413;-83
2021/09/17 01:49:42;;;;;;;;;;;;;;;7.75;66.56;99962.09;5133541;27;19923;-84
2021/09/17 01:52:08;;;;;;;;;;;;;;;7.75;66.60;99962.09;5115362;27;20285;-83
2021/09/17 01:54:36;;;;;;;;;;;;;;;7.76;66.61;99954.75;5133719;27;19923;-83
2021/09/17 01:57:03;;;;;;;;;;;;;;;7.67;66.69;99959.94;5133061;27;20299;-84
2021/09/17 02:01:54;;;;;;;;;;;;;;;7.77;67.48;99959.06;5133264;27;19930;-84
2021/09/17 02:04:20;;;;;;;;;;;;;;;7.69;67.23;99951.50;5133248;27;19923;-83
2021/09/17 02:06:46;;;;;;;;;;;;;;;7.73;67.94;99952.56;5133259;27;19923;-85
2021/09/17 02:09:12;;;;;;;;;;;;;;;7.73;67.58;99961.53;5114587;27;19923;-84
2021/09/17 02:11:38;;;;;;;;;;;;;;;7.65;67.90;99962.13;5133254;27;19934;-83
2021/09/17 02:14:05;;;;;;;;;;;;;;;7.61;68.18;99963.75;5133161;27;19936;-85
2021/09/17 02:16:31;;;;;;;;;;;;;;;7.67;68.21;99956.41;5133137;27;20306;-83
2021/09/17 02:18:58;;;;;;;;;;;;;;;7.60;68.15;99962.13;5132812;27;20073;-84
2021/09/17 02:21:24;;;;;;;;;;;;;;;7.59;68.67;99959.72;5133122;27;19923;-84
2021/09/17 02:23:51;;;;;;;;;;;;;;;7.57;69.16;99954.53;5133003;27;19923;-84
2021/09/17 02:26:18;;;;;;;;;;;;;;;7.54;68.87;99950.44;5133028;27;19924;-83
2021/09/17 02:28:44;;;;;;;;;;;;;;;7.57;69.11;99959.16;5114459;28;19930;-84
2021/09/17 02:31:10;;;;;;;;;;;;;;;7.59;69.46;99960.53;5132985;27;19927;-84
2021/09/17 02:33:37;;;;;;;;;;;;;;;7.56;69.12;99960.25;5132969;27;19924;-83
2021/09/17 02:36:03;;;;;;;;;;;;;;;7.66;69.05;99957.50;5132662;27;19929;-85
2021/09/17 02:38:29;;;;;;;;;;;;;;;7.71;68.88;99955.56;5132572;28;19967;-84
2021/09/17 02:40:55;;;;;;;;;;;;;;;7.69;69.04;99960.47;5132827;28;20003;-83
2021/09/17 02:43:24;;;;;;;;;;;;;;;7.69;68.85;99971.38;5132857;28;20596;-83
2021/09/17 02:45:50;;;;;;;;;;;;;;;7.70;68.94;99970.25;5132847;28;20040;-84
2021/09/17 02:48:18;;;;;;;;;;;;;;;7.70;69.03;99970.25;5114586;28;19923;-84
2021/09/17 02:50:43;;;;;;;;;;;;;;;7.58;69.38;99967.03;5132781;28;19976;-84
2021/09/17 02:53:09;;;;;;;;;;;;;;;7.65;69.46;99962.13;5114453;28;20288;-84
2021/09/17 02:55:35;;;;;;;;;;;;;;;7.65;69.16;99972.19;5132774;28;20349;-84
2021/09/17 02:58:06;;;;;;;;;;;;;;;7.62;69.35;99975.47;5133055;27;19924;-83
2021/09/17 03:00:35;;;;;;;;;;;;;;;7.63;69.37;99977.91;5136905;27;19923;-84
2021/09/17 03:03:02;;;;;;;;;;;;;;;7.60;69.23;99977.66;5136820;27;19942;-85
2021/09/17 03:05:27;;;;;;;;;;;;;;;7.56;69.46;99977.41;5137089;27;20392;-84
2021/09/17 03:07:54;;;;;;;;;;;;;;;7.51;69.98;99974.66;5136730;27;19919;-84
2021/09/17 03:10:20;;;;;;;;;;;;;;;7.49;70.05;99972.25;5136346;27;19946;-84
2021/09/17 03:12:47;;;;;;;;;;;;;;;7.54;70.17;99979.56;5136684;27;20376;-84
2021/09/17 03:15:14;;;;;;;;;;;;;;;7.57;70.25;99976.28;5136439;27;19920;-84
2021/09/17 03:17:40;;;;;;;;;;;;;;;7.71;70.44;99976.50;5136665;27;19923;-84
2021/09/17 03:20:09;;;;;;;;;;;;;;;7.71;69.88;99980.03;5135757;27;19958;-84
2021/09/17 03:22:35;;;;;;;;;;;;;;;7.76;70.27;99974.59;5136400;27;20320;-84
2021/09/17 03:25:01;;;;;;;;;;;;;;;7.84;70.20;99973.19;5118354;27;20000;-84
2021/09/17 03:27:28;;;;;;;;;;;;;;;7.94;69.65;99972.34;5136238;27;19988;-83
2021/09/17 03:29:54;;;;;;;;;;;;;;;7.94;68.76;99977.78;5136162;27;19931;-84
2021/09/17 03:32:21;;;;;;;;;;;;;;;7.98;69.24;99974.25;5117515;27;19923;-83
2021/09/17 03:34:46;;;;;;;;;;;;;;;7.91;68.59;99973.75;5136451;27;20380;-84
2021/09/17 03:37:13;;;;;;;;;;;;;;;7.97;68.68;99972.59;5135752;27;20022;-84
2021/09/17 03:39:39;;;;;;;;;;;;;;;8.03;68.14;99970.66;5136113;27;19970;-84
2021/09/17 03:42:08;;;;;;;;;;;;;;;7.97;66.51;99966.34;5135557;27;19924;-84
2021/09/17 03:44:34;;;;;;;;;;;;;;;7.98;67.60;99973.44;5136061;27;19937;-84
2021/09/17 03:47:00;;;;;;;;;;;;;;;7.99;66.82;99961.44;5117593;27;19924;-83
2021/09/17 03:49:26;;;;;;;;;;;;;;;8.07;66.93;99966.28;5135618;27;19923;-84
2021/09/17 03:51:54;;;;;;;;;;;;;;;8.19;66.97;99971.41;5136098;27;20034;-85
2021/09/17 03:54:23;;;;;;;;;;;;;;;8.28;66.60;99971.63;5135810;27;20017;-84
2021/09/17 03:56:50;;;;;;;;;;;;;;;8.38;66.49;99966.97;5135633;27;19923;-84
2021/09/17 03:59:16;;;;;;;;;;;;;;;8.45;65.89;99966.66;5116989;27;19924;-83
2021/09/17 04:01:44;;;;;;;;;;;;;;;8.48;65.79;99966.09;5135603;27;19923;-84
2021/09/17 04:04:10;;;;;;;;;;;;;;;8.45;63.52;99972.09;5129221;27;19950;-84
2021/09/17 04:06:36;;;;;;;;;;;;;;;8.35;64.67;99961.25;5119754;27;19924;-84
2021/09/17 04:09:02;;;;;;;;;;;;;;;8.48;64.45;99974.28;5122044;27;19971;-84
2021/09/17 04:11:31;;;;;;;;;;;;;;;8.46;63.85;99979.97;5135528;27;20458;-83
2021/09/17 04:13:57;;;;;;;;;;;;;;;8.56;64.12;99973.66;5110361;27;19931;-83
2021/09/17 04:16:22;;;;;;;;;;;;;;;8.60;61.99;99977.44;5117025;27;19982;-84
2021/09/17 04:18:48;;;;;;;;;;;;;;;8.72;62.41;99976.28;5114800;28;20426;-84
2021/09/17 04:21:15;;;;;;;;;;;;;;;8.85;62.26;99981.09;5134024;27;19970;-84
2021/09/17 04:23:41;;;;;;;;;;;;;;;8.84;62.08;99982.16;5120215;27;19973;-84
2021/09/17 04:26:07;;;;;;;;;;;;;;;8.90;61.92;99983.75;5127558;27;19923;-87
2021/09/17 04:28:33;;;;;;;;;;;;;;;9.05;61.59;99989.09;5134728;27;20021;-85
2021/09/17 04:31:01;;;;;;;;;;;;;;;9.02;60.44;99986.94;5126076;27;20010;-84
2021/09/17 04:33:27;;;;;;;;;;;;;;;8.86;60.07;99988.97;5100138;27;20405;-84
2021/09/17 04:35:53;;;;;;;;;;;;;;;8.73;60.19;99988.81;5098339;28;20415;-85
2021/09/17 04:38:19;;;;;;;;;;;;;;;8.64;60.07;99986.69;5096030;28;19924;-83
2021/09/17 04:40:45;;;;;;;;;;;;;;;8.66;60.48;99983.66;5122399;27;20414;-83
2021/09/17 04:43:11;;;;;;;;;;;;;;;8.72;59.54;99989.91;5114190;28;20014;-83
2021/09/17 04:45:38;;;;;;;;;;;;;;;8.75;58.93;99992.06;5114204;28;19928;-83
2021/09/17 04:48:11;;;;;;;;;;;;;;;8.81;58.62;99990.94;5114219;28;20039;-83
2021/09/17 04:50:37;;;;;;;;;;;;;;;8.72;57.58;99992.63;5125544;27;20299;-83
2021/09/17 04:53:03;;;;;;;;;;;;;;;8.83;58.87;100000.44;5127164;27;19923;-84
2021/09/17 04:55:29;;;;;;;;;;;;;;;9.00;58.45;99997.28;5134267;27;20288;-83
2021/09/17 04:57:54;;;;;;;;;;;;;;;9.16;57.74;99995.25;5133684;27;19930;-85
2021/09/17 05:00:21;;;;;;;;;;;;;;;9.12;57.45;99995.03;5133152;27;19927;-84
2021/09/17 05:02:47;;;;;;;;;;;;;;;9.20;57.78;99992.75;5133142;27;19923;-83
2021/09/17 05:05:14;;;;;;;;;;;;;;;9.23;57.06;99997.66;5133186;27;19919;-84
2021/09/17 05:07:40;;;;;;;;;;;;;;;9.21;56.68;99991.69;5114140;27;20299;-83
2021/09/17 05:10:18;;;;;;;;;;;;;;;9.15;57.03;99991.72;5132700;27;19923;-84
2021/09/17 05:12:44;;;;;;;;;;;;;;;9.24;58.56;99999.28;5132202;27;19973;-84
2021/09/17 05:15:10;;;;;;;;;;;;;;;9.31;57.59;100002.50;5132574;27;19977;-85
2021/09/17 05:17:37;;;;;;;;;;;;;;;9.17;56.74;99996.88;5113904;27;20400;-85
2021/09/17 05:20:03;;;;;;;;;;;;;;;9.09;57.94;100003.78;5130548;27;20030;-84
2021/09/17 05:22:29;;;;;;;;;;;;;;;9.05;57.89;99991.81;5130206;27;19997;-84
2021/09/17 05:24:55;;;;;;;;;;;;;;;9.07;58.18;99996.97;5131263;27;19923;-84
2021/09/17 05:27:21;;;;;;;;;;;;;;;9.08;58.88;99995.88;5130816;27;19923;-84
2021/09/17 05:29:47;;;;;;;;;;;;;;;9.13;58.48;99993.09;5130690;27;19920;-83
2021/09/17 05:32:14;;;;;;;;;;;;;;;9.15;58.27;99990.91;5112040;27;19924;-85
2021/09/17 05:34:39;;;;;;;;;;;;;;;9.18;58.14;99991.16;5130363;27;19976;-83
2021/09/17 05:37:05;;;;;;;;;;;;;;;9.25;58.61;99990.00;5129533;27;19974;-83
2021/09/17 05:39:32;;;;;;;;;;;;;;;9.34;58.96;99982.81;5129592;27;19923;-84
2021/09/17 05:42:00;;;;;;;;;;;;;;;9.43;59.22;99983.00;5129142;27;19926;-83
2021/09/17 05:44:27;;;;;;;;;;;;;;;9.52;57.63;99978.53;5129614;27;19923;-84
2021/09/17 05:46:52;;;;;;;;;;;;;;;9.50;58.15;99989.72;5129885;27;19923;-84
2021/09/17 05:49:18;;;;;;;;;;;;;;;9.40;57.49;99973.47;5110046;27;19976;-82
2021/09/17 05:51:44;;;;;;;;;;;;;;;9.39;57.94;99980.03;5128633;27;20503;-84
2021/09/17 05:54:10;;;;;;;;;;;;;;;9.39;58.12;99980.03;5128156;27;19941;-83
2021/09/17 05:56:35;;;;;;;;;;;;;;;9.43;58.20;99972.88;5127762;27;19962;-83
2021/09/17 05:59:01;;;;;;;;;;;;;;;9.45;58.10;99976.16;5127737;27;19976;-85
2021/09/17 06:01:27;;;;;;;;;;;;;;;9.44;58.64;99966.34;5127779;27;20500;-83
2021/09/17 06:03:53;;;;;;;;;;;;;;;9.41;58.08;99975.91;5126587;27;19924;-84
2021/09/17 06:06:20;;;;;;;;;;;;;;;9.43;58.42;99955.69;5127757;27;19930;-83
2021/09/17 06:08:48;;;;;;;;;;;;;;;9.53;58.69;99964.59;5108493;27;19920;-84
2021/09/17 06:11:15;;;;;;;;;;;;;;;9.58;58.82;99967.28;5127281;27;19947;-84
2021/09/17 06:13:41;;;;;;;;;;;;;;;9.63;59.31;99969.13;5129975;27;19931;-84
2021/09/17 06:16:07;;;;;;;;;;;;;;;9.63;57.36;99969.13;5133395;27;19923;-94
2021/09/17 06:18:32;;;;;;;;;;;;;;;9.60;57.18;99975.16;5133354;27;19930;-82
2021/09/17 06:21:00;;;;;;;;;;;;;;;9.64;56.76;99970.75;5133372;27;19982;-85
2021/09/17 06:23:27;;;;;;;;;;;;;;;9.62;56.43;99976.50;5132920;27;19975;-82
2021/09/17 06:25:56;;;;;;;;;;;;;;;9.65;56.25;99977.84;5132524;27;20324;-82
2021/09/17 06:28:25;;;;;;;;;;;;;;;9.68;56.41;99977.25;5132651;27;19931;-83
2021/09/17 06:30:51;;;;;;;;;;;;;;;9.65;56.90;99983.31;5132489;27;19923;-81
2021/09/17 06:33:17;;;;;;;;;;;;;;;9.57;56.69;99975.72;5126700;27;20806;-82
2021/09/17 06:35:42;;;;;;;;;;;;;;;9.55;57.01;99981.50;5115027;28;20452;-92
2021/09/17 06:38:08;;;;;;;;;;;;;;;9.60;58.19;99986.91;5126719;27;19932;-87
2021/09/17 06:40:34;;;;;;;;;;;;;;;9.62;58.89;99992.06;5148411;27;19923;-87
2021/09/17 06:43:00;;;;;;;;;;;;;;;9.63;58.65;99997.25;5126868;28;19968;-84
2021/09/17 06:45:29;;;;;;;;;;;;;;;9.65;57.81;99989.56;5111349;28;19927;-84
2021/09/17 06:47:58;;;;;;;;;;;;;;;9.70;57.77;99990.59;5128949;28;19927;-85
2021/09/17 06:50:28;;;;;;;;;;;;;;;9.69;58.01;99989.81;5110353;28;19923;-87
2021/09/17 06:52:54;;;;;;;;;;;;;;;9.75;57.68;99993.28;5130201;28;19974;-85
2021/09/17 06:55:22;;;;;;;;;;;;;;;9.75;57.78;99990.56;5125099;28;19923;-85
2021/09/17 06:57:49;;;;;;;;;;;;;;;9.76;58.21;99989.44;5130889;28;19931;-86
2021/09/17 07:00:17;;;;;;;;;;;;;;;9.79;58.57;99988.88;5122823;28;20002;-84
2021/09/17 07:02:43;;;;;;;;;;;;;;;9.86;59.60;99989.34;5129652;28;19992;-85
2021/09/17 07:05:09;;;;;;;;;;;;;;;9.85;58.72;99996.72;5122328;28;20024;-85
2021/09/17 07:07:35;;;;;;;;;;;;;;;9.83;58.40;99988.03;5130393;28;20414;-83
2021/09/17 07:10:06;;;;;;;;;;;;;;;9.84;58.18;99984.19;5121484;28;19923;-86
2021/09/17 07:12:31;;;;;;;;;;;;;;;9.90;57.72;99987.66;5109618;28;19923;-83
2021/09/17 07:14:58;;;;;;;;;;;;;;;9.94;57.50;99985.16;5121579;28;19923;-80
2021/09/17 07:17:23;;;;;;;;;;;;;;;9.89;56.77;99988.75;5128476;28;19923;-83
2021/09/17 07:19:50;;;;;;;;;;;;;;;9.92;57.90;99993.63;5120898;28;20067;-79
2021/09/17 07:22:16;;;;;;;;;;;;;;;9.91;56.01;99992.00;5128338;28;20077;-81
2021/09/17 07:24:42;;;;;;;;;;;;;;;9.87;55.97;99991.78;5101472;28;19924;-85
2021/09/17 07:27:08;;;;;;;;;;;;;;;9.87;56.72;99986.31;5127071;27;19978;-86
2021/09/17 07:29:35;;;;;;;;;;;;;;;9.89;57.80;99989.56;5120400;27;19974;-84
2021/09/17 07:32:00;;;;;;;;;;;;;;;9.96;57.25;99986.47;5108764;28;19968;-82
2021/09/17 07:34:26;;;;;;;;;;;;;;;9.92;56.19;99985.44;5119829;28;19930;-84
2021/09/17 07:36:52;;;;;;;;;;;;;;;9.88;56.56;99985.22;5126860;28;19924;-84
2021/09/17 07:39:18;;;;;;;;;;;;;;;9.84;56.54;99977.91;5118913;28;19953;-84
2021/09/17 07:41:44;;;;;;;;;;;;;;;9.82;56.92;99983.63;5126781;28;19924;-83
2021/09/17 07:44:10;;;;;;;;;;;;;;;9.78;57.46;99984.53;5080965;28;20304;-84
2021/09/17 07:46:37;;;;;;;;;;;;;;;9.74;56.97;99980.75;5129309;27;19929;-82
2021/09/17 07:49:04;;;;;;;;;;;;;;;9.76;57.11;99987.53;5103938;27;19948;-81
2021/09/17 07:51:29;;;;;;;;;;;;;;;9.83;57.25;99989.91;5094365;27;19923;-83
2021/09/17 07:53:56;;;;;;;;;;;;;;;9.89;57.04;99994.22;5103398;27;19931;-83
2021/09/17 07:56:22;;;;;;;;;;;;;;;9.85;57.41;99996.72;5129364;27;19923;-84
2021/09/17 07:58:48;;;;;;;;;;;;;;;9.85;57.38;99993.97;5121185;27;19991;-82
2021/09/17 08:01:15;;;;;;;;;;;;;;;9.89;56.81;100005.13;5128258;27;20285;-83
2021/09/17 08:03:40;;;;;;;;;;;;;;;9.86;55.90;100002.97;5102579;27;19980;-83
2021/09/17 08:06:07;;;;;;;;;;;;;;;9.91;57.08;100008.41;5129348;27;20029;-83
2021/09/17 08:08:34;;;;;;;;;;;;;;;9.95;56.41;100005.91;5123919;27;19923;-83
2021/09/17 08:10:59;;;;;;;;;;;;;;;9.96;56.86;100000.13;5131968;27;20381;-84
2021/09/17 08:13:26;;;;;;;;;;;;;;;10.00;55.70;100006.66;5131198;27;19923;-85
2021/09/17 08:15:52;;;;;;;;;;;;;;;9.95;54.67;100009.44;5131306;27;19923;-81
2021/09/17 08:18:17;;;;;;;;;;;;;;;9.97;54.58;100004.50;5117758;27;19923;-85
2021/09/17 08:20:50;;;;;;;;;;;;;;;9.95;54.74;100003.16;5135500;27;19924;-81
2021/09/17 08:23:19;;;;;;;;;;;;;;;9.99;55.09;100007.75;5135335;27;19919;-84
2021/09/17 08:25:45;;;;;;;;;;;;;;;10.00;55.46;100006.66;5141309;27;20040;-87
2021/09/17 08:28:12;;;;;;;;;;;;;;;9.98;55.96;100014.31;5137830;27;19923;-86
2021/09/17 08:30:37;;;;;;;;;;;;;;;9.98;54.36;100006.13;5133043;27;19926;-81
2021/09/17 08:33:19;;;;;;;;;;;;;;;10.01;54.16;100005.53;5117528;27;19924;-81
2021/09/17 08:36:05;;;;;;;;;;;;;;;10.00;55.61;100001.19;5118234;27;19924;-83
2021/09/17 08:38:51;;;;;;;;;;;;;;;10.03;53.96;100006.06;5118233;27;20000;-85
2021/09/17 08:41:26;;;;;;;;;;;;;;;10.08;53.68;100000.53;5113776;27;19923;-82
2021/09/17 08:43:53;;;;;;;;;;;;;;;10.07;54.85;100004.38;5133266;27;20435;-84
2021/09/17 08:46:19;;;;;;;;;;;;;;;10.10;52.85;99995.59;5137196;27;19928;-82
2021/09/17 08:48:46;;;;;;;;;;;;;;;10.14;52.00;99995.00;5133296;27;19923;-83
2021/09/17 08:51:12;;;;;;;;;;;;;;;10.12;52.87;99996.09;5133131;27;20360;-82
2021/09/17 08:53:38;;;;;;;;;;;;;;;10.14;53.35;100004.00;5133230;27;19937;-83
2021/09/17 08:56:07;;;;;;;;;;;;;;;9.99;51.69;99996.00;5132420;27;19934;-81
2021/09/17 08:58:35;;;;;;;;;;;;;;;9.90;52.84;99998.59;5132217;27;20444;-81
2021/09/17 09:01:00;;;;;;;;;;;;;;;9.98;53.37;99991.66;5132441;27;19931;-80
2021/09/17 09:03:27;;;;;;;;;;;;;;;10.06;55.52;99991.81;5130235;27;20013;-84
2021/09/17 09:05:52;;;;;;;;;;;;;;;10.09;55.66;99984.94;5131764;27;19946;-81
2021/09/17 09:08:25;;;;;;;;;;;;;;;10.16;54.47;99985.41;5132635;27;20439;-82
2021/09/17 09:10:51;;;;;;;;;;;;;;;10.28;53.68;99983.09;5114315;27;19985;-83
2021/09/17 09:13:17;;;;;;;;;;;;;;;10.36;53.34;99989.78;5132914;27;19962;-82
2021/09/17 09:15:43;;;;;;;;;;;;;;;10.37;51.28;99983.25;5132229;27;19966;-83
2021/09/17 09:18:13;;;;;;;;;;;;;;;10.46;51.79;99984.22;5113521;27;19938;-81
2021/09/17 09:20:39;;;;;;;;;;;;;;;10.47;51.82;99990.50;5131229;27;20387;-81
2021/09/17 09:23:06;;;;;;;;;;;;;;;10.53;52.62;99992.03;5113522;27;19935;-83
2021/09/17 09:25:34;;;;;;;;;;;;;;;10.65;52.95;99986.91;5132188;27;19981;-86
2021/09/17 09:28:09;;;;;;;;;;;;;;;10.73;51.18;99988.19;5135148;27;20426;-85
2021/09/17 09:30:35;;;;;;;;;;;;;;;10.77;50.93;99983.75;5129184;27;19923;-83
2021/09/17 09:33:20;;;;;;;;;;;;;;;10.75;50.08;99980.47;5132506;27;19947;-81
2021/09/17 09:35:54;;;;;;;;;;;;;;;10.66;49.55;99988.56;5114583;27;19923;-82
2021/09/17 09:38:32;;;;;;;;;;;;;;;10.40;49.94;99982.66;5132877;27;19927;-81
2021/09/17 09:40:59;;;;;;;;;;;;;;;10.40;50.80;99981.81;5132463;27;19927;-80
2021/09/17 09:43:28;;;;;;;;;;;;;;;10.24;51.07;99986.69;5132140;27;20299;-84
2021/09/17 09:45:57;;;;;;;;;;;;;;;10.28;50.90;99982.28;5131800;27;19923;-83
2021/09/17 09:48:23;;;;;;;;;;;;;;;10.47;50.72;99987.75;5135305;27;19964;-81
2021/09/17 09:50:50;;;;;;;;;;;;;;;10.66;50.02;99987.72;5134310;27;19972;-80
2021/09/17 09:53:15;;;;;;;;;;;;;;;10.66;49.38;99987.72;5131738;27;19979;-82
2021/09/17 09:55:42;;;;;;;;;;;;;;;10.72;48.49;99983.81;5132522;27;19919;-85
2021/09/17 09:58:08;;;;;;;;;;;;;;;10.58;45.84;99981.00;5131242;27;20335;-84
2021/09/17 10:00:35;;;;;;;;;;;;;;;10.56;46.74;99994.16;5132087;27;19977;-84
2021/09/17 10:03:01;;;;;;;;;;;;;;;10.68;46.97;99993.72;5113487;27;19930;-81
2021/09/17 10:05:28;;;;;;;;;;;;;;;10.67;44.51;99983.91;5132055;27;19923;-83
2021/09/17 10:07:54;;;;;;;;;;;;;;;10.79;46.39;99992.44;5131379;27;19931;-84
2021/09/17 10:10:20;;;;;;;;;;;;;;;10.88;46.66;99998.88;5135565;27;19923;-79
2021/09/17 10:12:46;;;;;;;;;;;;;;;10.92;45.54;100001.81;5131885;27;19930;-81
2021/09/17 10:15:14;;;;;;;;;;;;;;;10.96;45.65;99998.19;5132315;27;19924;-84
2021/09/17 10:17:40;;;;;;;;;;;;;;;11.00;46.45;100001.97;5131595;27;20435;-82
2021/09/17 10:20:08;;;;;;;;;;;;;;;10.96;44.25;100006.41;5131643;27;19923;-83
2021/09/17 10:22:39;;;;;;;;;;;;;;;10.94;43.08;99997.69;5114446;27;19923;-82
2021/09/17 10:25:08;;;;;;;;;;;;;;;10.95;44.41;99996.56;5113463;27;19927;-86
2021/09/17 10:27:34;;;;;;;;;;;;;;;11.00;44.20;99991.00;5131705;27;19919;-86
2021/09/17 10:30:01;;;;;;;;;;;;;;;11.01;44.14;99998.09;5132832;27;19969;-82
2021/09/17 10:32:27;;;;;;;;;;;;;;;11.00;44.25;99991.00;5112847;28;20345;-83
2021/09/17 10:35:12;;;;;;;;;;;;;;;11.03;45.08;99990.41;5130773;27;19923;-84
2021/09/17 10:37:57;;;;;;;;;;;;;;;11.07;45.25;99998.03;5113983;27;19966;-82
2021/09/17 10:40:44;;;;;;;;;;;;;;;11.09;44.99;99998.53;5116731;28;20384;-81
2021/09/17 10:43:10;;;;;;;;;;;;;;;11.12;46.01;99993.25;5131311;28;19930;-86
2021/09/17 10:45:47;;;;;;;;;;;;;;;11.07;44.81;99998.03;5134496;27;19933;-82
2021/09/17 10:48:14;;;;;;;;;;;;;;;11.02;44.64;100005.19;5108989;28;19985;-85
2021/09/17 10:50:43;;;;;;;;;;;;;;;11.04;46.64;100002.16;5131509;28;19923;-86
2021/09/17 10:53:10;;;;;;;;;;;;;;;10.99;48.16;100011.28;5131284;28;20020;-84
2021/09/17 10:55:45;;;;;;;;;;;;;;;10.91;48.34;100006.47;5134712;27;19930;-81
2021/09/17 10:58:19;;;;;;;;;;;;;;;10.92;47.64;100002.63;5128350;28;19923;-86
2021/09/17 11:00:55;;;;;;;;;;;;;;;10.91;47.57;100001.00;5131570;28;19923;-86
2021/09/17 11:03:36;;;;;;;;;;;;;;;10.90;47.94;100002.13;5128498;28;20391;-83
2021/09/17 11:06:18;;;;;;;;;;;;;;;10.91;46.23;99997.47;5133296;27;20501;-89
2021/09/17 11:09:01;;;;;;;;;;;;;;;10.91;49.13;100002.94;5113952;27;19923;-83
2021/09/17 11:11:49;;;;;;;;;;;;;;;10.87;47.78;99999.97;5116209;27;19968;-82
2021/09/17 11:14:16;;;;;;;;;;;;;;;10.83;48.02;100001.69;5139684;27;20342;-83
2021/09/17 11:16:44;;;;;;;;;;;;;;;10.76;48.60;100002.06;5132409;28;19923;-82
2021/09/17 11:19:11;;;;;;;;;;;;;;;10.70;49.33;99991.50;5124546;27;19923;-87
2021/09/17 11:21:41;;;;;;;;;;;;;;;10.71;48.47;99988.47;5135963;27;19924;-85
2021/09/17 11:24:16;;;;;;;;;;;;;;;10.76;47.14;99993.88;5127687;27;19923;-88
2021/09/17 11:26:43;;;;;;;;;;;;;;;10.75;49.40;100005.91;5117126;27;20540;-84
2021/09/17 11:29:10;;;;;;;;;;;;;;;10.70;49.41;100005.19;5127213;27;19951;-84
2021/09/17 11:31:37;;;;;;;;;;;;;;;10.74;51.41;100000.75;5116742;27;20010;-85
2021/09/17 11:34:07;;;;;;;;;;;;;;;10.69;48.81;100001.63;5130180;27;19923;-87
2021/09/17 11:36:37;;;;;;;;;;;;;;;10.72;49.21;100003.75;5142088;27;19923;-86
2021/09/17 11:39:19;;;;;;;;;;;;;;;10.71;48.50;100004.88;5131182;27;20280;-87
2021/09/17 11:41:48;;;;;;;;;;;;;;;10.67;48.95;99994.84;5122069;27;20466;-83
2021/09/17 11:44:32;;;;;;;;;;;;;;;10.70;47.06;100000.53;5125125;27;20143;-87
2021/09/17 11:46:58;;;;;;;;;;;;;;;10.81;46.85;99998.44;5129370;27;19919;-83
2021/09/17 11:49:28;;;;;;;;;;;;;;;10.86;47.42;100005.75;5129123;27;19930;-85
2021/09/17 11:52:01;;;;;;;;;;;;;;;10.90;49.10;100004.06;5113199;27;19968;-83
2021/09/17 11:54:29;;;;;;;;;;;;;;;10.84;48.77;100008.78;5131289;27;19927;-84
2021/09/17 11:57:05;;;;;;;;;;;;;;;10.83;47.13;100009.91;5129815;27;19968;-82
2021/09/17 11:59:44;;;;;;;;;;;;;;;10.85;48.09;100015.88;5130787;27;19927;-84
2021/09/17 12:02:10;;;;;;;;;;;;;;;10.87;46.57;100021.06;5122886;27;19957;-86
2021/09/17 12:04:36;;;;;;;;;;;;;;;10.90;46.90;100021.28;5130793;27;19928;-89
2021/09/17 12:07:02;;;;;;;;;;;;;;;10.96;46.79;100019.25;5107098;27;19988;-80
2021/09/17 12:09:28;;;;;;;;;;;;;;;10.99;47.28;100010.44;5127755;27;19923;-86
2021/09/17 12:11:56;;;;;;;;;;;;;;;10.92;46.97;100010.84;5127786;27;19968;-82
2021/09/17 12:14:22;;;;;;;;;;;;;;;10.96;46.74;100006.41;5124934;27;19919;-81
2021/09/17 12:16:48;;;;;;;;;;;;;;;10.89;47.83;100002.41;5129211;27;19923;-83
2021/09/17 12:19:15;;;;;;;;;;;;;;;10.51;47.65;100000.53;5123006;27;19924;-92
2021/09/17 12:21:42;;;;;;;;;;;;;;;10.25;49.75;100015.63;5112709;27;19930;-95
2021/09/17 12:24:22;;;;;;;;;;;;;;;10.06;49.93;100016.38;5107231;27;19923;-88
2021/09/17 12:26:52;;;;;;;;;;;;;;;10.09;49.67;100007.59;5129264;27;19934;-85
2021/09/17 12:29:18;;;;;;;;;;;;;;;10.29;49.57;100013.94;5122288;27;19924;-87
2021/09/17 12:31:44;;;;;;;;;;;;;;;10.44;48.65;100008.28;5128411;27;19923;-85
2021/09/17 12:34:16;;;;;;;;;;;;;;;10.54;47.62;100016.34;5120689;27;20363;-87
2021/09/17 12:36:47;;;;;;;;;;;;;;;10.47;47.60;100009.63;5103049;28;19931;-83
2021/09/17 12:39:18;;;;;;;;;;;;;;;10.41;46.24;100011.59;5099552;28;19923;-88
2021/09/17 12:41:45;;;;;;;;;;;;;;;10.28;46.97;100012.34;5105465;28;19988;-88
2021/09/17 12:44:12;;;;;;;;;;;;;;;10.33;48.03;100010.34;5099365;28;19927;-88
2021/09/17 12:46:42;;;;;;;;;;;;;;;10.38;48.00;100012.19;5106550;28;20400;-82
2021/09/17 12:49:09;;;;;;;;;;;;;;;10.46;47.79;100003.34;5098769;28;20389;-82
2021/09/17 12:51:35;;;;;;;;;;;;;;;10.46;47.98;100006.09;5108312;28;20391;-82
2021/09/17 12:54:09;;;;;;;;;;;;;;;10.41;48.45;100003.41;5099097;28;20000;-86
2021/09/17 12:56:35;;;;;;;;;;;;;;;10.24;47.67;100016.72;5106664;28;19977;-87